sensor_id;sensor_type;location;lat;lon;timestamp;P1;durP1;ratioP1;P2;durP2;ratioP2
67074;SDS011;53990;50.334;18.640;2022-09-17T00:01:19;13.30;;;8.80;;
67074;SDS011;53990;50.334;18.640;2022-09-17T00:03:52;12.10;;;9.30;;
67074;SDS011;53990;50.334;18.640;2022-09-17T00:06:20;12.20;;;8.50;;
67074;SDS011;53990;50.334;18.640;2022-09-17T00:08:49;12.50;;;8.40;;
67074;SDS011;53990;50.334;18.640;2022-09-17T00:11:19;12.90;;;9.10;;
67074;SDS011;53990;50.334;18.640;2022-09-17T00:13:48;11.80;;;8.70;;
67074;SDS011;53990;50.334;18.640;2022-09-17T00:16:29;10.90;;;8.70;;
67074;SDS011;53990;50.334;18.640;2022-09-17T00:18:58;12.10;;;9.20;;
67074;SDS011;53990;50.334;18.640;2022-09-17T00:21:26;15.00;;;8.40;;
67074;SDS011;53990;50.334;18.640;2022-09-17T00:24:00;12.30;;;8.80;;
67074;SDS011;53990;50.334;18.640;2022-09-17T00:26:29;14.20;;;8.60;;
67074;SDS011;53990;50.334;18.640;2022-09-17T00:28:57;14.60;;;8.50;;
67074;SDS011;53990;50.334;18.640;2022-09-17T00:31:26;15.70;;;9.40;;
67074;SDS011;53990;50.334;18.640;2022-09-17T00:33:53;10.60;;;7.80;;
67074;SDS011;53990;50.334;18.640;2022-09-17T00:36:21;15.50;;;9.40;;
67074;SDS011;53990;50.334;18.640;2022-09-17T00:38:50;14.10;;;8.90;;
67074;SDS011;53990;50.334;18.640;2022-09-17T00:41:18;14.00;;;9.70;;
67074;SDS011;53990;50.334;18.640;2022-09-17T00:43:48;15.00;;;9.10;;
67074;SDS011;53990;50.334;18.640;2022-09-17T00:46:24;15.40;;;9.00;;
67074;SDS011;53990;50.334;18.640;2022-09-17T00:48:54;13.60;;;8.40;;
67074;SDS011;53990;50.334;18.640;2022-09-17T00:51:35;14.40;;;9.20;;
67074;SDS011;53990;50.334;18.640;2022-09-17T00:54:05;13.00;;;8.50;;
67074;SDS011;53990;50.334;18.640;2022-09-17T00:56:35;12.60;;;8.40;;
67074;SDS011;53990;50.334;18.640;2022-09-17T00:59:03;15.30;;;9.20;;
67074;SDS011;53990;50.334;18.640;2022-09-17T01:01:31;13.00;;;9.00;;
67074;SDS011;53990;50.334;18.640;2022-09-17T01:03:59;14.50;;;9.70;;
67074;SDS011;53990;50.334;18.640;2022-09-17T01:15:37;10.00;;;7.50;;
67074;SDS011;53990;50.334;18.640;2022-09-17T01:28:50;11.50;;;7.80;;
67074;SDS011;53990;50.334;18.640;2022-09-17T01:36:46;11.30;;;7.60;;
67074;SDS011;53990;50.334;18.640;2022-09-17T01:39:58;13.10;;;7.60;;
67074;SDS011;53990;50.334;18.640;2022-09-17T01:42:36;12.80;;;7.90;;
67074;SDS011;53990;50.334;18.640;2022-09-17T01:45:18;10.70;;;7.90;;
67074;SDS011;53990;50.334;18.640;2022-09-17T01:47:53;10.60;;;7.60;;
67074;SDS011;53990;50.334;18.640;2022-09-17T01:50:26;9.90;;;7.40;;
67074;SDS011;53990;50.334;18.640;2022-09-17T01:52:55;11.80;;;7.90;;
67074;SDS011;53990;50.334;18.640;2022-09-17T01:55:25;13.20;;;8.20;;
67074;SDS011;53990;50.334;18.640;2022-09-17T01:57:59;11.60;;;8.30;;
67074;SDS011;53990;50.334;18.640;2022-09-17T02:00:29;10.70;;;8.30;;
67074;SDS011;53990;50.334;18.640;2022-09-17T02:05:32;10.10;;;7.20;;
67074;SDS011;53990;50.334;18.640;2022-09-17T02:08:21;11.50;;;8.20;;
67074;SDS011;53990;50.334;18.640;2022-09-17T02:11:00;10.50;;;8.00;;
67074;SDS011;53990;50.334;18.640;2022-09-17T02:16:25;10.70;;;8.20;;
67074;SDS011;53990;50.334;18.640;2022-09-17T02:19:13;11.90;;;8.40;;
67074;SDS011;53990;50.334;18.640;2022-09-17T02:21:50;11.90;;;8.50;;
67074;SDS011;53990;50.334;18.640;2022-09-17T02:31:57;11.90;;;8.00;;
67074;SDS011;53990;50.334;18.640;2022-09-17T02:34:26;12.50;;;9.20;;
67074;SDS011;53990;50.334;18.640;2022-09-17T02:36:55;13.60;;;7.50;;
67074;SDS011;53990;50.334;18.640;2022-09-17T02:39:26;14.10;;;7.70;;
67074;SDS011;53990;50.334;18.640;2022-09-17T02:42:05;10.20;;;8.30;;
67074;SDS011;53990;50.334;18.640;2022-09-17T02:59:37;10.50;;;7.90;;
67074;SDS011;53990;50.334;18.640;2022-09-17T03:02:16;13.40;;;8.50;;
67074;SDS011;53990;50.334;18.640;2022-09-17T03:04:46;10.30;;;8.20;;
67074;SDS011;53990;50.334;18.640;2022-09-17T03:07:16;11.00;;;8.00;;
67074;SDS011;53990;50.334;18.640;2022-09-17T03:09:44;10.70;;;7.60;;
67074;SDS011;53990;50.334;18.640;2022-09-17T03:12:11;13.60;;;7.90;;
67074;SDS011;53990;50.334;18.640;2022-09-17T03:14:38;13.20;;;8.10;;
67074;SDS011;53990;50.334;18.640;2022-09-17T03:17:06;9.90;;;7.50;;
67074;SDS011;53990;50.334;18.640;2022-09-17T03:19:33;10.10;;;7.70;;
67074;SDS011;53990;50.334;18.640;2022-09-17T03:22:00;10.10;;;7.50;;
67074;SDS011;53990;50.334;18.640;2022-09-17T03:24:28;10.90;;;7.90;;
67074;SDS011;53990;50.334;18.640;2022-09-17T03:26:55;9.40;;;7.00;;
67074;SDS011;53990;50.334;18.640;2022-09-17T03:29:23;10.00;;;7.00;;
67074;SDS011;53990;50.334;18.640;2022-09-17T03:31:50;10.00;;;7.00;;
67074;SDS011;53990;50.334;18.640;2022-09-17T03:34:17;10.30;;;7.40;;
67074;SDS011;53990;50.334;18.640;2022-09-17T03:36:45;10.10;;;7.20;;
67074;SDS011;53990;50.334;18.640;2022-09-17T03:39:12;12.00;;;7.40;;
67074;SDS011;53990;50.334;18.640;2022-09-17T03:41:40;9.80;;;7.50;;
67074;SDS011;53990;50.334;18.640;2022-09-17T03:44:07;11.50;;;7.40;;
67074;SDS011;53990;50.334;18.640;2022-09-17T03:46:36;12.10;;;7.70;;
67074;SDS011;53990;50.334;18.640;2022-09-17T03:49:03;10.80;;;7.70;;
67074;SDS011;53990;50.334;18.640;2022-09-17T03:51:31;10.60;;;7.70;;
67074;SDS011;53990;50.334;18.640;2022-09-17T03:53:58;11.90;;;7.70;;
67074;SDS011;53990;50.334;18.640;2022-09-17T03:56:25;10.70;;;7.50;;
67074;SDS011;53990;50.334;18.640;2022-09-17T03:58:59;10.50;;;7.70;;
67074;SDS011;53990;50.334;18.640;2022-09-17T04:01:27;11.20;;;7.80;;
67074;SDS011;53990;50.334;18.640;2022-09-17T04:03:54;10.20;;;7.90;;
67074;SDS011;53990;50.334;18.640;2022-09-17T04:06:22;10.40;;;7.50;;
67074;SDS011;53990;50.334;18.640;2022-09-17T04:08:49;10.50;;;8.10;;
67074;SDS011;53990;50.334;18.640;2022-09-17T04:11:16;10.40;;;8.00;;
67074;SDS011;53990;50.334;18.640;2022-09-17T04:13:43;10.10;;;8.00;;
67074;SDS011;53990;50.334;18.640;2022-09-17T04:16:10;11.90;;;8.00;;
67074;SDS011;53990;50.334;18.640;2022-09-17T04:18:38;10.60;;;8.60;;
67074;SDS011;53990;50.334;18.640;2022-09-17T04:21:05;13.30;;;8.40;;
67074;SDS011;53990;50.334;18.640;2022-09-17T04:23:32;13.30;;;8.60;;
67074;SDS011;53990;50.334;18.640;2022-09-17T04:26:00;12.70;;;7.80;;
67074;SDS011;53990;50.334;18.640;2022-09-17T04:28:27;11.70;;;7.80;;
67074;SDS011;53990;50.334;18.640;2022-09-17T04:30:54;10.10;;;8.00;;
67074;SDS011;53990;50.334;18.640;2022-09-17T04:33:22;10.50;;;7.90;;
67074;SDS011;53990;50.334;18.640;2022-09-17T04:35:49;9.80;;;7.60;;
67074;SDS011;53990;50.334;18.640;2022-09-17T04:38:16;9.70;;;7.50;;
67074;SDS011;53990;50.334;18.640;2022-09-17T04:40:47;11.80;;;7.00;;
67074;SDS011;53990;50.334;18.640;2022-09-17T04:43:14;11.20;;;7.90;;
67074;SDS011;53990;50.334;18.640;2022-09-17T04:45:44;8.70;;;7.30;;
67074;SDS011;53990;50.334;18.640;2022-09-17T04:48:12;9.30;;;7.70;;
67074;SDS011;53990;50.334;18.640;2022-09-17T04:50:39;10.50;;;7.30;;
67074;SDS011;53990;50.334;18.640;2022-09-17T04:53:06;8.00;;;7.00;;
67074;SDS011;53990;50.334;18.640;2022-09-17T04:55:34;10.40;;;7.10;;
67074;SDS011;53990;50.334;18.640;2022-09-17T04:58:01;9.60;;;7.60;;
67074;SDS011;53990;50.334;18.640;2022-09-17T05:00:28;12.20;;;8.00;;
67074;SDS011;53990;50.334;18.640;2022-09-17T05:02:55;9.60;;;7.50;;
67074;SDS011;53990;50.334;18.640;2022-09-17T05:05:23;10.00;;;8.10;;
67074;SDS011;53990;50.334;18.640;2022-09-17T05:07:50;12.20;;;7.60;;
67074;SDS011;53990;50.334;18.640;2022-09-17T05:10:19;12.20;;;9.10;;
67074;SDS011;53990;50.334;18.640;2022-09-17T05:12:51;9.60;;;7.60;;
67074;SDS011;53990;50.334;18.640;2022-09-17T05:15:19;10.00;;;8.00;;
67074;SDS011;53990;50.334;18.640;2022-09-17T05:17:46;10.80;;;8.00;;
67074;SDS011;53990;50.334;18.640;2022-09-17T05:20:14;10.40;;;7.80;;
67074;SDS011;53990;50.334;18.640;2022-09-17T05:22:47;11.00;;;7.30;;
67074;SDS011;53990;50.334;18.640;2022-09-17T05:25:16;9.10;;;6.60;;
67074;SDS011;53990;50.334;18.640;2022-09-17T05:27:44;8.80;;;7.00;;
67074;SDS011;53990;50.334;18.640;2022-09-17T05:30:12;8.40;;;6.80;;
67074;SDS011;53990;50.334;18.640;2022-09-17T05:32:39;9.50;;;6.80;;
67074;SDS011;53990;50.334;18.640;2022-09-17T05:35:07;16.40;;;11.00;;
67074;SDS011;53990;50.334;18.640;2022-09-17T05:37:35;12.90;;;9.30;;
67074;SDS011;53990;50.334;18.640;2022-09-17T05:40:04;10.30;;;7.10;;
67074;SDS011;53990;50.334;18.640;2022-09-17T05:42:33;8.80;;;6.80;;
67074;SDS011;53990;50.334;18.640;2022-09-17T05:45:00;10.70;;;6.90;;
67074;SDS011;53990;50.334;18.640;2022-09-17T05:47:27;8.10;;;7.00;;
67074;SDS011;53990;50.334;18.640;2022-09-17T05:49:55;10.10;;;6.80;;
67074;SDS011;53990;50.334;18.640;2022-09-17T05:52:26;9.50;;;6.90;;
67074;SDS011;53990;50.334;18.640;2022-09-17T05:54:55;9.70;;;6.90;;
67074;SDS011;53990;50.334;18.640;2022-09-17T05:57:22;9.40;;;6.30;;
67074;SDS011;53990;50.334;18.640;2022-09-17T05:59:50;8.70;;;6.50;;
67074;SDS011;53990;50.334;18.640;2022-09-17T06:02:17;8.30;;;6.40;;
67074;SDS011;53990;50.334;18.640;2022-09-17T06:04:44;9.80;;;7.20;;
67074;SDS011;53990;50.334;18.640;2022-09-17T06:07:12;8.20;;;6.50;;
67074;SDS011;53990;50.334;18.640;2022-09-17T06:09:39;8.00;;;6.00;;
67074;SDS011;53990;50.334;18.640;2022-09-17T06:12:07;8.60;;;6.70;;
67074;SDS011;53990;50.334;18.640;2022-09-17T06:14:34;7.70;;;6.70;;
67074;SDS011;53990;50.334;18.640;2022-09-17T06:17:02;8.70;;;6.50;;
67074;SDS011;53990;50.334;18.640;2022-09-17T06:19:29;7.40;;;6.40;;
67074;SDS011;53990;50.334;18.640;2022-09-17T06:21:56;8.10;;;6.30;;
67074;SDS011;53990;50.334;18.640;2022-09-17T06:24:23;8.30;;;6.50;;
67074;SDS011;53990;50.334;18.640;2022-09-17T06:26:51;8.90;;;6.70;;
67074;SDS011;53990;50.334;18.640;2022-09-17T06:29:19;8.70;;;6.40;;
67074;SDS011;53990;50.334;18.640;2022-09-17T06:31:47;8.10;;;5.90;;
67074;SDS011;53990;50.334;18.640;2022-09-17T06:34:15;8.70;;;6.10;;
67074;SDS011;53990;50.334;18.640;2022-09-17T06:36:43;7.70;;;6.10;;
67074;SDS011;53990;50.334;18.640;2022-09-17T06:39:10;8.90;;;6.20;;
67074;SDS011;53990;50.334;18.640;2022-09-17T06:41:37;9.20;;;5.90;;
67074;SDS011;53990;50.334;18.640;2022-09-17T06:44:04;9.80;;;6.50;;
67074;SDS011;53990;50.334;18.640;2022-09-17T06:46:32;10.60;;;5.80;;
67074;SDS011;53990;50.334;18.640;2022-09-17T06:48:59;8.90;;;6.30;;
67074;SDS011;53990;50.334;18.640;2022-09-17T06:51:26;7.80;;;5.50;;
67074;SDS011;53990;50.334;18.640;2022-09-17T06:53:53;7.20;;;6.00;;
67074;SDS011;53990;50.334;18.640;2022-09-17T06:56:21;7.90;;;6.30;;
67074;SDS011;53990;50.334;18.640;2022-09-17T06:58:48;9.70;;;6.40;;
67074;SDS011;53990;50.334;18.640;2022-09-17T07:01:15;7.60;;;5.80;;
67074;SDS011;53990;50.334;18.640;2022-09-17T07:03:42;8.30;;;5.90;;
67074;SDS011;53990;50.334;18.640;2022-09-17T07:06:10;7.80;;;6.00;;
67074;SDS011;53990;50.334;18.640;2022-09-17T07:08:38;6.50;;;5.40;;
67074;SDS011;53990;50.334;18.640;2022-09-17T07:11:05;7.60;;;5.20;;
67074;SDS011;53990;50.334;18.640;2022-09-17T07:13:34;7.50;;;5.70;;
67074;SDS011;53990;50.334;18.640;2022-09-17T07:16:03;7.50;;;5.50;;
67074;SDS011;53990;50.334;18.640;2022-09-17T07:18:31;7.40;;;5.90;;
67074;SDS011;53990;50.334;18.640;2022-09-17T07:21:01;8.60;;;5.50;;
67074;SDS011;53990;50.334;18.640;2022-09-17T07:23:31;8.90;;;5.30;;
67074;SDS011;53990;50.334;18.640;2022-09-17T07:26:04;7.20;;;5.50;;
67074;SDS011;53990;50.334;18.640;2022-09-17T07:28:33;8.10;;;5.10;;
67074;SDS011;53990;50.334;18.640;2022-09-17T07:31:04;8.50;;;5.10;;
67074;SDS011;53990;50.334;18.640;2022-09-17T07:33:33;7.20;;;5.20;;
67074;SDS011;53990;50.334;18.640;2022-09-17T07:36:03;8.80;;;5.10;;
67074;SDS011;53990;50.334;18.640;2022-09-17T07:38:31;7.20;;;4.50;;
67074;SDS011;53990;50.334;18.640;2022-09-17T07:43:33;13.00;;;7.90;;
67074;SDS011;53990;50.334;18.640;2022-09-17T07:46:03;7.60;;;5.50;;
67074;SDS011;53990;50.334;18.640;2022-09-17T07:48:34;6.10;;;4.40;;
67074;SDS011;53990;50.334;18.640;2022-09-17T07:51:03;6.20;;;4.50;;
67074;SDS011;53990;50.334;18.640;2022-09-17T07:53:31;7.10;;;4.40;;
67074;SDS011;53990;50.334;18.640;2022-09-17T07:55:59;5.90;;;4.40;;
67074;SDS011;53990;50.334;18.640;2022-09-17T07:58:32;8.30;;;4.60;;
67074;SDS011;53990;50.334;18.640;2022-09-17T08:01:02;5.70;;;4.50;;
67074;SDS011;53990;50.334;18.640;2022-09-17T08:03:33;6.30;;;4.90;;
67074;SDS011;53990;50.334;18.640;2022-09-17T08:06:09;5.70;;;4.70;;
67074;SDS011;53990;50.334;18.640;2022-09-17T08:08:37;6.30;;;4.30;;
67074;SDS011;53990;50.334;18.640;2022-09-17T08:11:14;6.20;;;4.50;;
67074;SDS011;53990;50.334;18.640;2022-09-17T08:16:11;6.40;;;4.90;;
67074;SDS011;53990;50.334;18.640;2022-09-17T08:18:39;6.80;;;4.80;;
67074;SDS011;53990;50.334;18.640;2022-09-17T08:21:09;5.10;;;4.30;;
67074;SDS011;53990;50.334;18.640;2022-09-17T08:23:38;5.90;;;3.70;;
67074;SDS011;53990;50.334;18.640;2022-09-17T08:26:11;5.70;;;4.00;;
67074;SDS011;53990;50.334;18.640;2022-09-17T08:28:43;6.50;;;3.90;;
67074;SDS011;53990;50.334;18.640;2022-09-17T08:31:11;5.10;;;3.80;;
67074;SDS011;53990;50.334;18.640;2022-09-17T08:33:40;6.00;;;4.00;;
67074;SDS011;53990;50.334;18.640;2022-09-17T08:36:10;5.80;;;4.10;;
67074;SDS011;53990;50.334;18.640;2022-09-17T08:38:39;7.90;;;4.00;;
67074;SDS011;53990;50.334;18.640;2022-09-17T08:46:51;7.60;;;4.40;;
67074;SDS011;53990;50.334;18.640;2022-09-17T08:49:32;6.80;;;4.20;;
67074;SDS011;53990;50.334;18.640;2022-09-17T08:57:45;6.10;;;3.60;;
67074;SDS011;53990;50.334;18.640;2022-09-17T09:00:19;6.00;;;4.00;;
67074;SDS011;53990;50.334;18.640;2022-09-17T09:05:42;8.50;;;4.20;;
67074;SDS011;53990;50.334;18.640;2022-09-17T09:08:32;6.20;;;4.40;;
67074;SDS011;53990;50.334;18.640;2022-09-17T09:11:09;4.60;;;3.80;;
67074;SDS011;53990;50.334;18.640;2022-09-17T09:13:42;6.50;;;4.80;;
67074;SDS011;53990;50.334;18.640;2022-09-17T09:16:24;4.50;;;3.80;;
67074;SDS011;53990;50.334;18.640;2022-09-17T09:18:54;5.30;;;3.80;;
67074;SDS011;53990;50.334;18.640;2022-09-17T09:21:27;5.30;;;3.90;;
67074;SDS011;53990;50.334;18.640;2022-09-17T09:24:13;5.60;;;4.30;;
67074;SDS011;53990;50.334;18.640;2022-09-17T09:26:48;7.10;;;4.20;;
67074;SDS011;53990;50.334;18.640;2022-09-17T09:34:32;7.10;;;4.10;;
67074;SDS011;53990;50.334;18.640;2022-09-17T09:37:23;5.10;;;3.50;;
67074;SDS011;53990;50.334;18.640;2022-09-17T09:39:53;6.10;;;3.70;;
67074;SDS011;53990;50.334;18.640;2022-09-17T09:42:34;6.40;;;2.90;;
67074;SDS011;53990;50.334;18.640;2022-09-17T09:45:16;6.30;;;3.10;;
67074;SDS011;53990;50.334;18.640;2022-09-17T09:57:05;5.30;;;2.90;;
67074;SDS011;53990;50.334;18.640;2022-09-17T09:59:34;6.70;;;3.30;;
67074;SDS011;53990;50.334;18.640;2022-09-17T10:02:03;6.20;;;3.30;;
67074;SDS011;53990;50.334;18.640;2022-09-17T10:04:30;5.30;;;3.20;;
67074;SDS011;53990;50.334;18.640;2022-09-17T10:07:03;6.40;;;3.30;;
67074;SDS011;53990;50.334;18.640;2022-09-17T10:09:34;8.10;;;3.20;;
67074;SDS011;53990;50.334;18.640;2022-09-17T10:14:38;6.00;;;3.50;;
67074;SDS011;53990;50.334;18.640;2022-09-17T10:17:23;7.40;;;3.60;;
67074;SDS011;53990;50.334;18.640;2022-09-17T10:20:15;7.90;;;4.00;;
67074;SDS011;53990;50.334;18.640;2022-09-17T10:22:44;9.60;;;4.30;;
67074;SDS011;53990;50.334;18.640;2022-09-17T10:27:51;7.30;;;4.20;;
67074;SDS011;53990;50.334;18.640;2022-09-17T10:30:18;7.10;;;3.90;;
67074;SDS011;53990;50.334;18.640;2022-09-17T10:35:57;8.00;;;3.70;;
67074;SDS011;53990;50.334;18.640;2022-09-17T10:38:30;9.60;;;4.10;;
67074;SDS011;53990;50.334;18.640;2022-09-17T10:41:19;8.60;;;4.00;;
67074;SDS011;53990;50.334;18.640;2022-09-17T10:43:51;11.90;;;4.80;;
67074;SDS011;53990;50.334;18.640;2022-09-17T10:46:26;10.20;;;4.70;;
67074;SDS011;53990;50.334;18.640;2022-09-17T10:49:33;12.50;;;4.90;;
67074;SDS011;53990;50.334;18.640;2022-09-17T10:52:13;6.10;;;4.20;;
67074;SDS011;53990;50.334;18.640;2022-09-17T10:57:36;12.50;;;4.70;;
67074;SDS011;53990;50.334;18.640;2022-09-17T11:00:19;9.00;;;4.20;;
67074;SDS011;53990;50.334;18.640;2022-09-17T11:03:16;6.40;;;4.80;;
67074;SDS011;53990;50.334;18.640;2022-09-17T11:11:05;10.10;;;4.20;;
67074;SDS011;53990;50.334;18.640;2022-09-17T11:17:01;7.10;;;4.00;;
67074;SDS011;53990;50.334;18.640;2022-09-17T11:19:42;7.10;;;4.30;;
67074;SDS011;53990;50.334;18.640;2022-09-17T11:25:40;10.30;;;5.60;;
67074;SDS011;53990;50.334;18.640;2022-09-17T11:28:38;6.80;;;4.20;;
67074;SDS011;53990;50.334;18.640;2022-09-17T11:34:23;7.00;;;4.10;;
67074;SDS011;53990;50.334;18.640;2022-09-17T11:37:09;6.20;;;3.80;;
67074;SDS011;53990;50.334;18.640;2022-09-17T11:39:40;7.30;;;3.90;;
67074;SDS011;53990;50.334;18.640;2022-09-17T11:42:16;6.50;;;3.90;;
67074;SDS011;53990;50.334;18.640;2022-09-17T11:44:53;5.30;;;3.50;;
67074;SDS011;53990;50.334;18.640;2022-09-17T11:47:29;6.40;;;3.80;;
67074;SDS011;53990;50.334;18.640;2022-09-17T11:50:02;5.80;;;3.50;;
67074;SDS011;53990;50.334;18.640;2022-09-17T11:52:44;22.20;;;16.50;;
67074;SDS011;53990;50.334;18.640;2022-09-17T11:55:28;5.60;;;3.20;;
67074;SDS011;53990;50.334;18.640;2022-09-17T11:58:21;6.60;;;3.20;;
67074;SDS011;53990;50.334;18.640;2022-09-17T12:01:00;6.00;;;3.00;;
67074;SDS011;53990;50.334;18.640;2022-09-17T12:03:34;4.40;;;3.30;;
67074;SDS011;53990;50.334;18.640;2022-09-17T12:06:14;6.40;;;3.10;;
67074;SDS011;53990;50.334;18.640;2022-09-17T12:08:58;7.20;;;3.10;;
67074;SDS011;53990;50.334;18.640;2022-09-17T12:13:56;5.50;;;3.00;;
67074;SDS011;53990;50.334;18.640;2022-09-17T12:16:30;6.10;;;3.30;;
67074;SDS011;53990;50.334;18.640;2022-09-17T12:21:42;4.70;;;3.20;;
67074;SDS011;53990;50.334;18.640;2022-09-17T12:27:07;7.10;;;3.40;;
67074;SDS011;53990;50.334;18.640;2022-09-17T12:35:45;8.30;;;3.80;;
67074;SDS011;53990;50.334;18.640;2022-09-17T12:43:50;7.20;;;4.00;;
67074;SDS011;53990;50.334;18.640;2022-09-17T12:52:21;5.80;;;3.60;;
67074;SDS011;53990;50.334;18.640;2022-09-17T13:00:41;7.00;;;3.30;;
67074;SDS011;53990;50.334;18.640;2022-09-17T13:20:25;5.50;;;3.40;;
67074;SDS011;53990;50.334;18.640;2022-09-17T13:22:55;4.30;;;3.40;;
67074;SDS011;53990;50.334;18.640;2022-09-17T13:25:24;4.90;;;3.40;;
67074;SDS011;53990;50.334;18.640;2022-09-17T13:28:05;5.10;;;3.00;;
67074;SDS011;53990;50.334;18.640;2022-09-17T13:30:54;4.30;;;2.90;;
67074;SDS011;53990;50.334;18.640;2022-09-17T13:33:47;5.50;;;3.20;;
67074;SDS011;53990;50.334;18.640;2022-09-17T13:39:02;4.60;;;3.20;;
67074;SDS011;53990;50.334;18.640;2022-09-17T13:41:33;4.50;;;3.20;;
67074;SDS011;53990;50.334;18.640;2022-09-17T13:44:03;4.10;;;3.10;;
67074;SDS011;53990;50.334;18.640;2022-09-17T13:46:32;6.00;;;3.00;;
67074;SDS011;53990;50.334;18.640;2022-09-17T13:49:10;5.60;;;3.20;;
67074;SDS011;53990;50.334;18.640;2022-09-17T13:54:08;6.30;;;4.10;;
67074;SDS011;53990;50.334;18.640;2022-09-17T13:56:52;4.50;;;3.80;;
67074;SDS011;53990;50.334;18.640;2022-09-17T13:59:30;5.10;;;3.20;;
67074;SDS011;53990;50.334;18.640;2022-09-17T14:09:56;6.00;;;3.30;;
67074;SDS011;53990;50.334;18.640;2022-09-17T14:15:36;6.40;;;4.20;;
67074;SDS011;53990;50.334;18.640;2022-09-17T14:21:26;6.40;;;4.10;;
67074;SDS011;53990;50.334;18.640;2022-09-17T14:23:57;8.90;;;6.50;;
67074;SDS011;53990;50.334;18.640;2022-09-17T14:26:45;9.10;;;5.60;;
67074;SDS011;53990;50.334;18.640;2022-09-17T14:32:12;6.40;;;4.30;;
67074;SDS011;53990;50.334;18.640;2022-09-17T14:34:41;7.20;;;4.40;;
67074;SDS011;53990;50.334;18.640;2022-09-17T14:37:12;6.90;;;4.80;;
67074;SDS011;53990;50.334;18.640;2022-09-17T14:39:41;11.70;;;8.30;;
67074;SDS011;53990;50.334;18.640;2022-09-17T14:42:25;9.40;;;6.80;;
67074;SDS011;53990;50.334;18.640;2022-09-17T14:44:59;7.60;;;5.10;;
67074;SDS011;53990;50.334;18.640;2022-09-17T14:47:27;9.30;;;5.60;;
67074;SDS011;53990;50.334;18.640;2022-09-17T14:50:24;10.90;;;5.30;;
67074;SDS011;53990;50.334;18.640;2022-09-17T14:52:52;8.00;;;4.70;;
67074;SDS011;53990;50.334;18.640;2022-09-17T14:55:22;7.90;;;5.20;;
67074;SDS011;53990;50.334;18.640;2022-09-17T14:57:57;9.00;;;5.10;;
67074;SDS011;53990;50.334;18.640;2022-09-17T15:00:36;6.70;;;4.90;;
67074;SDS011;53990;50.334;18.640;2022-09-17T15:03:04;7.10;;;4.60;;
67074;SDS011;53990;50.334;18.640;2022-09-17T15:05:36;10.70;;;5.70;;
67074;SDS011;53990;50.334;18.640;2022-09-17T15:10:47;13.60;;;9.10;;
67074;SDS011;53990;50.334;18.640;2022-09-17T15:13:35;20.50;;;15.40;;
67074;SDS011;53990;50.334;18.640;2022-09-17T15:16:16;9.30;;;6.30;;
67074;SDS011;53990;50.334;18.640;2022-09-17T15:18:54;6.90;;;5.00;;
67074;SDS011;53990;50.334;18.640;2022-09-17T15:24:03;9.30;;;5.50;;
67074;SDS011;53990;50.334;18.640;2022-09-17T15:26:38;6.10;;;4.70;;
67074;SDS011;53990;50.334;18.640;2022-09-17T15:29:10;7.90;;;5.10;;
67074;SDS011;53990;50.334;18.640;2022-09-17T15:31:38;10.10;;;4.90;;
67074;SDS011;53990;50.334;18.640;2022-09-17T15:34:05;7.40;;;5.00;;
67074;SDS011;53990;50.334;18.640;2022-09-17T15:36:36;8.90;;;5.50;;
67074;SDS011;53990;50.334;18.640;2022-09-17T15:39:29;10.60;;;5.20;;
67074;SDS011;53990;50.334;18.640;2022-09-17T15:41:57;11.10;;;5.40;;
67074;SDS011;53990;50.334;18.640;2022-09-17T15:44:25;9.50;;;6.40;;
67074;SDS011;53990;50.334;18.640;2022-09-17T15:46:52;9.10;;;6.20;;
67074;SDS011;53990;50.334;18.640;2022-09-17T15:49:31;10.20;;;5.90;;
67074;SDS011;53990;50.334;18.640;2022-09-17T15:52:26;8.60;;;6.00;;
67074;SDS011;53990;50.334;18.640;2022-09-17T15:54:56;8.10;;;5.40;;
67074;SDS011;53990;50.334;18.640;2022-09-17T15:57:25;7.50;;;4.40;;
67074;SDS011;53990;50.334;18.640;2022-09-17T15:59:53;5.70;;;4.50;;
67074;SDS011;53990;50.334;18.640;2022-09-17T16:02:29;7.10;;;5.10;;
67074;SDS011;53990;50.334;18.640;2022-09-17T16:07:44;19.80;;;14.70;;
67074;SDS011;53990;50.334;18.640;2022-09-17T16:10:13;23.80;;;17.10;;
67074;SDS011;53990;50.334;18.640;2022-09-17T16:12:43;15.30;;;11.30;;
67074;SDS011;53990;50.334;18.640;2022-09-17T16:15:12;28.70;;;16.00;;
67074;SDS011;53990;50.334;18.640;2022-09-17T16:17:44;22.10;;;14.40;;
67074;SDS011;53990;50.334;18.640;2022-09-17T16:20:24;18.60;;;11.50;;
67074;SDS011;53990;50.334;18.640;2022-09-17T16:22:52;20.30;;;11.50;;
67074;SDS011;53990;50.334;18.640;2022-09-17T16:25:26;62.20;;;28.50;;
67074;SDS011;53990;50.334;18.640;2022-09-17T16:28:02;23.80;;;13.70;;
67074;SDS011;53990;50.334;18.640;2022-09-17T16:30:30;24.30;;;12.20;;
67074;SDS011;53990;50.334;18.640;2022-09-17T16:32:58;14.90;;;9.70;;
67074;SDS011;53990;50.334;18.640;2022-09-17T16:35:29;27.60;;;17.10;;
67074;SDS011;53990;50.334;18.640;2022-09-17T16:37:56;10.00;;;7.60;;
67074;SDS011;53990;50.334;18.640;2022-09-17T16:40:26;10.20;;;5.90;;
67074;SDS011;53990;50.334;18.640;2022-09-17T16:42:54;17.90;;;11.80;;
67074;SDS011;53990;50.334;18.640;2022-09-17T16:45:21;13.00;;;9.10;;
67074;SDS011;53990;50.334;18.640;2022-09-17T16:47:48;10.00;;;7.60;;
67074;SDS011;53990;50.334;18.640;2022-09-17T16:50:16;10.90;;;7.70;;
67074;SDS011;53990;50.334;18.640;2022-09-17T16:52:44;14.20;;;11.00;;
67074;SDS011;53990;50.334;18.640;2022-09-17T16:55:14;9.10;;;6.20;;
67074;SDS011;53990;50.334;18.640;2022-09-17T16:57:41;7.80;;;5.90;;
67074;SDS011;53990;50.334;18.640;2022-09-17T17:00:11;9.30;;;6.00;;
67074;SDS011;53990;50.334;18.640;2022-09-17T17:02:39;7.40;;;5.30;;
67074;SDS011;53990;50.334;18.640;2022-09-17T17:05:07;7.50;;;4.90;;
67074;SDS011;53990;50.334;18.640;2022-09-17T17:07:35;8.80;;;6.00;;
67074;SDS011;53990;50.334;18.640;2022-09-17T17:10:06;8.40;;;5.10;;
67074;SDS011;53990;50.334;18.640;2022-09-17T17:12:35;8.60;;;5.80;;
67074;SDS011;53990;50.334;18.640;2022-09-17T17:15:04;6.90;;;4.20;;
67074;SDS011;53990;50.334;18.640;2022-09-17T17:17:35;6.70;;;4.10;;
67074;SDS011;53990;50.334;18.640;2022-09-17T17:20:05;5.60;;;3.90;;
67074;SDS011;53990;50.334;18.640;2022-09-17T17:22:37;5.00;;;3.00;;
67074;SDS011;53990;50.334;18.640;2022-09-17T17:25:05;6.20;;;4.10;;
67074;SDS011;53990;50.334;18.640;2022-09-17T17:27:33;5.80;;;3.60;;
67074;SDS011;53990;50.334;18.640;2022-09-17T17:30:01;5.50;;;3.50;;
67074;SDS011;53990;50.334;18.640;2022-09-17T17:32:31;5.50;;;3.70;;
67074;SDS011;53990;50.334;18.640;2022-09-17T17:34:58;5.10;;;3.20;;
67074;SDS011;53990;50.334;18.640;2022-09-17T17:37:26;5.00;;;3.70;;
67074;SDS011;53990;50.334;18.640;2022-09-17T17:39:53;7.10;;;4.50;;
67074;SDS011;53990;50.334;18.640;2022-09-17T17:42:21;4.50;;;3.30;;
67074;SDS011;53990;50.334;18.640;2022-09-17T17:44:48;5.80;;;3.60;;
67074;SDS011;53990;50.334;18.640;2022-09-17T17:47:15;5.00;;;3.90;;
67074;SDS011;53990;50.334;18.640;2022-09-17T17:49:42;7.70;;;5.30;;
67074;SDS011;53990;50.334;18.640;2022-09-17T17:52:10;7.20;;;5.00;;
67074;SDS011;53990;50.334;18.640;2022-09-17T17:54:37;8.10;;;4.60;;
67074;SDS011;53990;50.334;18.640;2022-09-17T17:57:04;5.70;;;4.20;;
67074;SDS011;53990;50.334;18.640;2022-09-17T17:59:32;7.40;;;5.10;;
67074;SDS011;53990;50.334;18.640;2022-09-17T18:01:59;5.00;;;4.20;;
67074;SDS011;53990;50.334;18.640;2022-09-17T18:04:26;5.70;;;4.50;;
67074;SDS011;53990;50.334;18.640;2022-09-17T18:06:53;6.90;;;4.50;;